Time;durP1;ratioP1;P1;durP2;ratioP2;P2;SDS_P1;SDS_P2;PMS_P1;PMS_P2;Temp;Humidity;BMP_temperature;BMP_pressure;BME280_temperature;BME280_humidity;BME280_pressure;Samples;Min_cycle;Max_cycle;Signal;HPM_P1;HPM_P2
2022/08/01 00:00:37;;;;;;;9.65;6.30;;;;;;;;;;5032482;28;20484;-74
2022/08/01 00:03:03;;;;;;;9.70;6.30;;;;;;;;;;5032266;28;20029;-75
2022/08/01 00:05:30;;;;;;;7.82;6.15;;;;;;;;;;5036047;28;20065;-76
2022/08/01 00:07:56;;;;;;;9.30;7.20;;;;;;;;;;5031869;28;20503;-74
2022/08/01 00:10:22;;;;;;;10.23;6.63;;;;;;;;;;5032286;28;20048;-73
2022/08/01 00:12:48;;;;;;;8.48;7.10;;;;;;;;;;5032424;28;20034;-73
2022/08/01 00:15:15;;;;;;;12.40;6.65;;;;;;;;;;5032176;28;20121;-74
2022/08/01 00:17:42;;;;;;;7.15;6.32;;;;;;;;;;5032242;28;20026;-74
2022/08/01 00:20:12;;;;;;;10.07;6.78;;;;;;;;;;5032296;28;20105;-75
2022/08/01 00:22:38;;;;;;;13.20;7.00;;;;;;;;;;5032284;28;20032;-74
2022/08/01 00:25:05;;;;;;;10.60;6.80;;;;;;;;;;5032054;28;20029;-74
2022/08/01 00:27:31;;;;;;;7.45;6.65;;;;;;;;;;5031765;28;20043;-74
2022/08/01 00:29:58;;;;;;;10.25;6.53;;;;;;;;;;5031497;28;20037;-73
2022/08/01 00:32:24;;;;;;;7.18;5.93;;;;;;;;;;5030817;28;20099;-74
2022/08/01 00:34:50;;;;;;;6.85;6.15;;;;;;;;;;5031599;28;20393;-76
2022/08/01 00:37:16;;;;;;;7.00;6.30;;;;;;;;;;5031934;28;20037;-75
2022/08/01 00:39:42;;;;;;;7.18;6.47;;;;;;;;;;5032061;28;20053;-73
2022/08/01 00:42:10;;;;;;;7.78;6.22;;;;;;;;;;5031769;28;20075;-73
2022/08/01 00:44:36;;;;;;;7.15;6.32;;;;;;;;;;5031817;28;20061;-73
2022/08/01 00:47:03;;;;;;;9.23;6.28;;;;;;;;;;5031103;28;20073;-73
2022/08/01 00:49:29;;;;;;;7.95;6.88;;;;;;;;;;5036011;28;20455;-73
2022/08/01 00:51:56;;;;;;;7.68;6.50;;;;;;;;;;5051984;28;20115;-73
2022/08/01 00:54:26;;;;;;;8.52;6.82;;;;;;;;;;5051710;28;20041;-74
2022/08/01 00:56:53;;;;;;;6.68;5.93;;;;;;;;;;5051762;28;20033;-73
2022/08/01 00:59:21;;;;;;;12.38;6.30;;;;;;;;;;5051648;28;20400;-74
2022/08/01 01:01:47;;;;;;;8.15;5.90;;;;;;;;;;5051656;28;20068;-74
2022/08/01 01:04:13;;;;;;;8.98;6.03;;;;;;;;;;5051566;28;20029;-73
2022/08/01 01:06:51;;;;;;;14.38;6.40;;;;;;;;;;5051449;28;20144;-73
2022/08/01 01:09:17;;;;;;;9.30;5.88;;;;;;;;;;5051367;28;20037;-73
2022/08/01 01:12:25;;;;;;;10.68;6.00;;;;;;;;;;5033676;28;20479;-73
2022/08/01 01:15:09;;;;;;;10.88;5.60;;;;;;;;;;5051576;28;20040;-74
2022/08/01 01:17:42;;;;;;;8.90;5.65;;;;;;;;;;5051663;28;20036;-74
2022/08/01 01:20:12;;;;;;;8.30;6.20;;;;;;;;;;5051579;28;20036;-74
2022/08/01 01:22:53;;;;;;;6.55;5.70;;;;;;;;;;5051380;28;20029;-75
2022/08/01 01:25:36;;;;;;;6.80;5.70;;;;;;;;;;5051396;28;20079;-73
2022/08/01 01:28:08;;;;;;;10.40;5.43;;;;;;;;;;5034123;28;20033;-74
2022/08/01 01:30:38;;;;;;;8.05;5.60;;;;;;;;;;5031547;28;20057;-73
2022/08/01 01:33:09;;;;;;;6.55;5.43;;;;;;;;;;5031226;28;20038;-73
2022/08/01 01:35:41;;;;;;;7.88;5.35;;;;;;;;;;5031495;28;20045;-73
2022/08/01 01:38:19;;;;;;;7.63;5.13;;;;;;;;;;5031305;28;20037;-73
2022/08/01 01:40:47;;;;;;;6.75;5.22;;;;;;;;;;5031323;28;20041;-73
2022/08/01 01:43:15;;;;;;;7.97;4.97;;;;;;;;;;5033526;28;20041;-74
2022/08/01 01:45:43;;;;;;;7.07;5.55;;;;;;;;;;5034758;28;20500;-74
2022/08/01 01:48:10;;;;;;;12.43;5.35;;;;;;;;;;5034442;28;20445;-74
2022/08/01 01:50:38;;;;;;;10.23;5.82;;;;;;;;;;5032955;28;20049;-73
2022/08/01 01:53:06;;;;;;;7.30;4.97;;;;;;;;;;5044850;28;20041;-73
2022/08/01 01:55:34;;;;;;;8.88;4.88;;;;;;;;;;5034789;28;20102;-74
2022/08/01 01:58:00;;;;;;;7.72;5.25;;;;;;;;;;5034493;28;20033;-74
2022/08/01 02:00:28;;;;;;;8.65;4.55;;;;;;;;;;5034675;28;20083;-74
2022/08/01 02:02:56;;;;;;;7.45;4.95;;;;;;;;;;5034474;28;20091;-74
2022/08/01 02:05:23;;;;;;;7.13;4.20;;;;;;;;;;5036909;28;20451;-73
2022/08/01 02:07:52;;;;;;;7.25;4.47;;;;;;;;;;5043087;28;20542;-73
2022/08/01 02:10:19;;;;;;;15.23;4.47;;;;;;;;;;5034278;28;20036;-74
2022/08/01 02:12:46;;;;;;;8.85;3.78;;;;;;;;;;5036883;28;20025;-74
2022/08/01 02:15:14;;;;;;;5.35;4.13;;;;;;;;;;5044901;28;20059;-74
2022/08/01 02:17:43;;;;;;;6.65;4.47;;;;;;;;;;5047644;28;20040;-74
2022/08/01 02:20:10;;;;;;;6.07;4.35;;;;;;;;;;5054189;28;20086;-74
2022/08/01 02:22:48;;;;;;;11.63;4.40;;;;;;;;;;5054318;28;20495;-74
2022/08/01 02:25:23;;;;;;;5.15;4.00;;;;;;;;;;5054279;28;20067;-73
2022/08/01 02:28:01;;;;;;;4.03;3.63;;;;;;;;;;5054030;28;20415;-74
2022/08/01 02:30:32;;;;;;;7.30;3.92;;;;;;;;;;5054264;28;20037;-72
2022/08/01 02:33:02;;;;;;;5.07;4.20;;;;;;;;;;5053828;28;20048;-74
2022/08/01 02:35:32;;;;;;;6.30;3.88;;;;;;;;;;5054137;28;20037;-74
2022/08/01 02:38:01;;;;;;;6.15;4.45;;;;;;;;;;5054200;28;20037;-74
2022/08/01 02:40:29;;;;;;;6.15;4.05;;;;;;;;;;5054059;28;20471;-74
2022/08/01 02:42:57;;;;;;;6.93;3.90;;;;;;;;;;5053604;28;20077;-74
2022/08/01 02:45:26;;;;;;;4.85;3.97;;;;;;;;;;5053882;28;20029;-74
2022/08/01 02:47:59;;;;;;;4.40;3.75;;;;;;;;;;5053714;28;20094;-75
2022/08/01 02:50:28;;;;;;;5.40;3.83;;;;;;;;;;5053755;28;20037;-73
2022/08/01 02:52:56;;;;;;;5.13;3.58;;;;;;;;;;5053571;28;20119;-74
2022/08/01 02:55:23;;;;;;;6.60;3.80;;;;;;;;;;5052813;28;20049;-74
2022/08/01 02:57:53;;;;;;;7.00;3.92;;;;;;;;;;5053738;28;20029;-75
2022/08/01 03:00:19;;;;;;;4.35;3.95;;;;;;;;;;5053359;28;20040;-74
2022/08/01 03:02:48;;;;;;;4.43;3.65;;;;;;;;;;5053397;28;20053;-74
2022/08/01 03:05:15;;;;;;;6.28;3.58;;;;;;;;;;5053409;28;20481;-74
2022/08/01 03:07:43;;;;;;;4.57;3.67;;;;;;;;;;5052871;28;20029;-75
2022/08/01 03:10:10;;;;;;;6.45;3.70;;;;;;;;;;5052948;28;20391;-74
2022/08/01 03:12:39;;;;;;;4.60;3.13;;;;;;;;;;5052812;28;20522;-73
2022/08/01 03:15:06;;;;;;;7.43;3.40;;;;;;;;;;5052704;28;20492;-73
2022/08/01 03:17:33;;;;;;;6.68;3.75;;;;;;;;;;5053165;28;20043;-73
2022/08/01 03:20:02;;;;;;;7.50;4.00;;;;;;;;;;5053166;28;20488;-74
2022/08/01 03:22:31;;;;;;;7.53;3.40;;;;;;;;;;5051983;28;20037;-73
2022/08/01 03:24:59;;;;;;;4.95;3.65;;;;;;;;;;5053089;28;20032;-73
2022/08/01 03:27:25;;;;;;;4.82;3.50;;;;;;;;;;5052849;28;20040;-73
2022/08/01 03:29:54;;;;;;;6.88;3.47;;;;;;;;;;5038237;28;20467;-75
2022/08/01 03:32:22;;;;;;;3.78;3.17;;;;;;;;;;5032880;28;20041;-75
2022/08/01 03:34:48;;;;;;;5.50;3.33;;;;;;;;;;5032530;28;20038;-77
2022/08/01 03:37:24;;;;;;;5.00;3.55;;;;;;;;;;5032783;28;20069;-76
2022/08/01 03:39:55;;;;;;;5.68;3.50;;;;;;;;;;5032918;28;20037;-74
2022/08/01 03:42:32;;;;;;;5.10;3.53;;;;;;;;;;5032519;28;20033;-74
2022/08/01 03:45:02;;;;;;;8.65;3.70;;;;;;;;;;5032516;28;20033;-74
2022/08/01 03:47:33;;;;;;;5.43;3.40;;;;;;;;;;5032439;28;20041;-75
2022/08/01 03:50:02;;;;;;;6.63;3.45;;;;;;;;;;5032540;28;20084;-76
2022/08/01 03:52:30;;;;;;;4.95;3.92;;;;;;;;;;5032948;28;20052;-72
2022/08/01 03:55:03;;;;;;;7.18;3.83;;;;;;;;;;5043729;28;20765;-74
2022/08/01 03:57:29;;;;;;;3.92;3.50;;;;;;;;;;5039649;28;20028;-76
2022/08/01 03:59:57;;;;;;;6.18;3.80;;;;;;;;;;5052411;28;20408;-74
2022/08/01 04:02:23;;;;;;;7.72;4.10;;;;;;;;;;5052029;28;20152;-75
2022/08/01 04:04:50;;;;;;;5.78;3.72;;;;;;;;;;5052001;28;20043;-73
2022/08/01 04:07:23;;;;;;;6.38;3.78;;;;;;;;;;5052152;28;20033;-74
2022/08/01 04:09:50;;;;;;;9.43;3.75;;;;;;;;;;5052246;28;20055;-75
2022/08/01 04:12:16;;;;;;;6.40;3.85;;;;;;;;;;5051891;28;20043;-73
2022/08/01 04:14:42;;;;;;;6.43;4.25;;;;;;;;;;5051568;28;20037;-75
2022/08/01 04:17:08;;;;;;;6.32;3.72;;;;;;;;;;5051566;28;20079;-73
2022/08/01 04:19:34;;;;;;;7.53;3.75;;;;;;;;;;5051318;28;20029;-74
2022/08/01 04:22:02;;;;;;;5.05;3.85;;;;;;;;;;5051999;28;20029;-73
2022/08/01 04:24:29;;;;;;;7.00;3.15;;;;;;;;;;5051870;28;20035;-74
2022/08/01 04:26:58;;;;;;;6.57;3.42;;;;;;;;;;5051615;28;20045;-73
2022/08/01 04:29:26;;;;;;;4.78;3.88;;;;;;;;;;5048881;28;20053;-74
2022/08/01 04:31:54;;;;;;;4.80;3.20;;;;;;;;;;5031354;28;20044;-74
2022/08/01 04:34:24;;;;;;;5.47;3.22;;;;;;;;;;5031407;28;20030;-73
2022/08/01 04:36:52;;;;;;;5.55;3.47;;;;;;;;;;5031434;28;20033;-75
2022/08/01 04:39:19;;;;;;;3.80;3.13;;;;;;;;;;5031454;28;20059;-74
2022/08/01 04:41:47;;;;;;;4.53;3.22;;;;;;;;;;5031740;28;20064;-74
2022/08/01 04:44:14;;;;;;;5.75;3.28;;;;;;;;;;5031374;28;20034;-74
2022/08/01 04:46:40;;;;;;;4.88;3.08;;;;;;;;;;5031329;28;20388;-73
2022/08/01 04:49:08;;;;;;;5.72;3.53;;;;;;;;;;5031397;28;20059;-73
2022/08/01 04:51:35;;;;;;;8.98;3.50;;;;;;;;;;5030098;28;20033;-74
2022/08/01 04:54:01;;;;;;;14.45;3.95;;;;;;;;;;5031412;28;20069;-74
2022/08/01 04:56:27;;;;;;;7.38;3.63;;;;;;;;;;5031335;28;20041;-73
2022/08/01 05:01:37;;;;;;;6.28;3.65;;;;;;;;;;5031409;28;20026;-74
2022/08/01 05:04:03;;;;;;;8.15;3.65;;;;;;;;;;5032255;28;20061;-74
2022/08/01 05:06:29;;;;;;;6.90;3.75;;;;;;;;;;5036239;28;20037;-76
2022/08/01 05:08:55;;;;;;;11.43;3.50;;;;;;;;;;5045130;28;20033;-73
2022/08/01 05:11:21;;;;;;;11.48;3.80;;;;;;;;;;5051179;28;20028;-74
2022/08/01 05:13:48;;;;;;;11.60;3.85;;;;;;;;;;5050833;28;20057;-73
2022/08/01 05:16:14;;;;;;;12.07;3.63;;;;;;;;;;5051197;28;20025;-72
2022/08/01 05:18:40;;;;;;;15.98;4.07;;;;;;;;;;5047343;28;20037;-73
2022/08/01 05:21:06;;;;;;;15.30;3.60;;;;;;;;;;5035134;28;20038;-73
2022/08/01 05:23:31;;;;;;;11.60;3.20;;;;;;;;;;5033701;28;20029;-73
2022/08/01 05:25:58;;;;;;;6.93;3.35;;;;;;;;;;5034946;28;20370;-74
2022/08/01 05:28:24;;;;;;;8.93;3.22;;;;;;;;;;5035160;28;20111;-73
2022/08/01 05:30:49;;;;;;;8.02;3.55;;;;;;;;;;5040973;28;20030;-74
2022/08/01 05:33:15;;;;;;;12.95;4.20;;;;;;;;;;5034794;28;20091;-71
2022/08/01 05:35:41;;;;;;;11.70;3.50;;;;;;;;;;5046415;28;20029;-71
2022/08/01 05:38:07;;;;;;;6.30;3.20;;;;;;;;;;5035039;28;20036;-71
2022/08/01 05:40:33;;;;;;;5.32;2.83;;;;;;;;;;5045799;28;20033;-73
2022/08/01 05:42:59;;;;;;;4.80;3.05;;;;;;;;;;5053581;28;20041;-72
2022/08/01 05:45:25;;;;;;;6.38;3.10;;;;;;;;;;5053755;28;20106;-74
2022/08/01 05:47:51;;;;;;;9.23;3.28;;;;;;;;;;5051522;28;20033;-72
2022/08/01 05:50:17;;;;;;;4.28;3.03;;;;;;;;;;5053926;28;20040;-72
2022/08/01 05:52:43;;;;;;;7.07;2.95;;;;;;;;;;5054166;28;20029;-75
2022/08/01 05:55:09;;;;;;;6.82;3.20;;;;;;;;;;5050783;28;20160;-74
2022/08/01 05:57:35;;;;;;;6.13;3.10;;;;;;;;;;5053679;28;20041;-76
2022/08/01 06:00:01;;;;;;;3.95;3.05;;;;;;;;;;5039469;28;20550;-73
2022/08/01 06:02:41;;;;;;;5.90;3.60;;;;;;;;;;5034059;28;20438;-73
2022/08/01 06:05:07;;;;;;;3.90;3.38;;;;;;;;;;5033758;28;20108;-73
2022/08/01 06:07:33;;;;;;;7.25;4.47;;;;;;;;;;5050158;28;20053;-73
2022/08/01 06:09:59;;;;;;;5.82;3.15;;;;;;;;;;5051561;28;20223;-74
2022/08/01 06:12:25;;;;;;;5.40;3.10;;;;;;;;;;5053760;28;20060;-74
2022/08/01 06:14:51;;;;;;;6.32;3.20;;;;;;;;;;5053653;28;20040;-74
2022/08/01 06:17:17;;;;;;;7.05;3.78;;;;;;;;;;5053738;28;20100;-75
2022/08/01 06:19:43;;;;;;;6.20;3.22;;;;;;;;;;5053754;28;20121;-75
2022/08/01 06:22:09;;;;;;;6.25;3.50;;;;;;;;;;5053519;28;20112;-74
2022/08/01 06:24:35;;;;;;;6.65;3.13;;;;;;;;;;5052661;28;20538;-74
2022/08/01 06:27:02;;;;;;;3.55;3.08;;;;;;;;;;5052778;28;20115;-75
2022/08/01 06:29:31;;;;;;;7.03;3.30;;;;;;;;;;5052209;28;20033;-75
2022/08/01 06:31:57;;;;;;;8.55;3.25;;;;;;;;;;5053205;28;20045;-74
2022/08/01 06:34:23;;;;;;;3.72;3.05;;;;;;;;;;5053054;28;20502;-75
2022/08/01 06:36:49;;;;;;;5.15;3.05;;;;;;;;;;5053272;28;20025;-73
2022/08/01 06:39:15;;;;;;;6.03;2.90;;;;;;;;;;5051560;28;20136;-75
2022/08/01 06:41:41;;;;;;;6.72;3.30;;;;;;;;;;5052417;28;20492;-75
2022/08/01 06:44:07;;;;;;;5.40;2.88;;;;;;;;;;5053329;28;20040;-73
2022/08/01 06:46:34;;;;;;;4.97;2.63;;;;;;;;;;5053594;28;20041;-76
2022/08/01 06:49:00;;;;;;;19.10;3.30;;;;;;;;;;5053079;28;20047;-73
2022/08/01 06:51:26;;;;;;;5.20;3.08;;;;;;;;;;5053232;28;20340;-75
2022/08/01 06:53:53;;;;;;;4.97;2.80;;;;;;;;;;5052191;28;20029;-74
2022/08/01 06:56:19;;;;;;;7.63;2.50;;;;;;;;;;5051354;28;20494;-75
2022/08/01 06:58:45;;;;;;;8.85;2.78;;;;;;;;;;5051446;28;20126;-73
2022/08/01 07:01:11;;;;;;;4.70;2.35;;;;;;;;;;5051770;28;20488;-74
2022/08/01 07:03:37;;;;;;;9.30;2.97;;;;;;;;;;5051094;28;20063;-74
2022/08/01 07:06:03;;;;;;;5.38;2.47;;;;;;;;;;5051170;28;20502;-75
2022/08/01 07:08:30;;;;;;;7.85;3.20;;;;;;;;;;5051514;28;20380;-74
2022/08/01 07:10:59;;;;;;;11.10;2.53;;;;;;;;;;5051084;28;20037;-74
2022/08/01 07:13:26;;;;;;;5.70;2.30;;;;;;;;;;5051105;28;20032;-76
2022/08/01 07:15:53;;;;;;;4.32;2.20;;;;;;;;;;5051439;28;20039;-74
2022/08/01 07:18:19;;;;;;;8.63;2.00;;;;;;;;;;5051159;28;20427;-75
2022/08/01 07:20:48;;;;;;;7.15;2.05;;;;;;;;;;5051478;28;20733;-74
2022/08/01 07:23:14;;;;;;;6.28;2.47;;;;;;;;;;5050903;28;20488;-74
2022/08/01 07:25:41;;;;;;;8.68;2.30;;;;;;;;;;5050947;28;20063;-73
2022/08/01 07:28:07;;;;;;;8.82;2.40;;;;;;;;;;5046444;28;20507;-75
2022/08/01 07:30:33;;;;;;;9.10;2.40;;;;;;;;;;5049697;28;20064;-74
2022/08/01 07:33:00;;;;;;;11.00;2.30;;;;;;;;;;5050663;28;20381;-73
2022/08/01 07:35:26;;;;;;;6.45;2.33;;;;;;;;;;5050645;28;20496;-73
2022/08/01 07:37:53;;;;;;;7.95;2.22;;;;;;;;;;5050775;28;20036;-74
2022/08/01 07:40:19;;;;;;;7.75;2.10;;;;;;;;;;5050765;28;20033;-72
2022/08/01 07:42:46;;;;;;;5.57;2.28;;;;;;;;;;5050440;28;20037;-73
2022/08/01 07:45:13;;;;;;;6.15;2.10;;;;;;;;;;5049936;28;20045;-75
2022/08/01 07:47:39;;;;;;;5.28;2.70;;;;;;;;;;5051028;28;20041;-75
2022/08/01 07:50:06;;;;;;;7.15;2.00;;;;;;;;;;5050210;28;20082;-75
2022/08/01 07:52:32;;;;;;;3.55;2.30;;;;;;;;;;5050482;28;20029;-76
2022/08/01 07:54:58;;;;;;;6.70;2.00;;;;;;;;;;5050383;28;20033;-75
2022/08/01 07:57:25;;;;;;;3.95;2.00;;;;;;;;;;5050405;28;20033;-75
2022/08/01 07:59:51;;;;;;;4.15;2.03;;;;;;;;;;5050720;28;20152;-75
2022/08/01 08:02:17;;;;;;;4.22;1.90;;;;;;;;;;5050232;28;20029;-76
2022/08/01 08:04:43;;;;;;;6.97;1.95;;;;;;;;;;5049922;28;20025;-74
2022/08/01 08:07:09;;;;;;;4.82;1.88;;;;;;;;;;5050294;28;20048;-75
2022/08/01 08:09:35;;;;;;;3.47;2.10;;;;;;;;;;5050483;28;20530;-75
2022/08/01 08:12:01;;;;;;;3.58;1.98;;;;;;;;;;5050084;28;20029;-76
2022/08/01 08:14:27;;;;;;;4.68;2.38;;;;;;;;;;5050301;28;20033;-74
2022/08/01 08:16:53;;;;;;;3.55;1.83;;;;;;;;;;5049884;28;20051;-74
2022/08/01 08:19:19;;;;;;;3.63;2.28;;;;;;;;;;5049742;28;20025;-74
2022/08/01 08:21:45;;;;;;;4.07;2.10;;;;;;;;;;5049790;28;20025;-76
2022/08/01 08:24:19;;;;;;;3.25;2.22;;;;;;;;;;5049790;28;20550;-76
2022/08/01 08:26:46;;;;;;;4.45;2.03;;;;;;;;;;5049813;28;20131;-75
2022/08/01 08:29:12;;;;;;;4.47;2.20;;;;;;;;;;5050048;28;20044;-75
2022/08/01 08:31:38;;;;;;;7.88;4.18;;;;;;;;;;5049423;28;20108;-76
2022/08/01 08:34:05;;;;;;;7.78;2.85;;;;;;;;;;5050060;28;20029;-74
2022/08/01 08:36:31;;;;;;;5.18;2.70;;;;;;;;;;5049741;28;20059;-76
2022/08/01 08:38:58;;;;;;;3.08;1.90;;;;;;;;;;5049669;28;20044;-73
2022/08/01 08:41:24;;;;;;;3.95;2.30;;;;;;;;;;5049795;28;20087;-75
2022/08/01 08:43:50;;;;;;;5.70;2.50;;;;;;;;;;5049647;28;20488;-76
2022/08/01 08:46:17;;;;;;;4.65;2.28;;;;;;;;;;5049696;28;20029;-75
2022/08/01 08:48:43;;;;;;;8.80;2.92;;;;;;;;;;5049579;28;20068;-75
2022/08/01 08:51:11;;;;;;;5.10;2.75;;;;;;;;;;5049298;28;20032;-74
2022/08/01 08:53:43;;;;;;;3.38;2.50;;;;;;;;;;5049299;28;20032;-76
2022/08/01 08:56:13;;;;;;;5.32;2.50;;;;;;;;;;5049161;28;20071;-74
2022/08/01 08:58:45;;;;;;;4.40;2.72;;;;;;;;;;5049347;28;20038;-75
2022/08/01 09:01:12;;;;;;;7.65;3.45;;;;;;;;;;5049687;28;20036;-76
2022/08/01 09:03:39;;;;;;;4.65;2.90;;;;;;;;;;5049163;28;20059;-74
2022/08/01 09:06:06;;;;;;;4.47;2.90;;;;;;;;;;5049425;28;20032;-74
2022/08/01 09:08:33;;;;;;;8.05;2.83;;;;;;;;;;5049651;28;20365;-75
2022/08/01 09:10:59;;;;;;;9.55;3.50;;;;;;;;;;5049421;28;20053;-75
2022/08/01 09:13:25;;;;;;;5.75;2.90;;;;;;;;;;5049063;28;20446;-73
2022/08/01 09:15:54;;;;;;;6.43;2.70;;;;;;;;;;5049628;28;20041;-75
2022/08/01 09:18:33;;;;;;;6.57;2.33;;;;;;;;;;5049502;28;20087;-75
2022/08/01 09:21:19;;;;;;;5.65;2.75;;;;;;;;;;5049200;28;20519;-76
2022/08/01 09:23:51;;;;;;;5.10;2.95;;;;;;;;;;5049179;28;20456;-76
2022/08/01 09:26:34;;;;;;;15.85;3.20;;;;;;;;;;5048422;28;20503;-75
2022/08/01 09:29:01;;;;;;;;;;;;;;;;;;5049155;28;20668;-75
2022/08/01 09:31:31;;;;;;;5.05;2.97;;;;;;;;;;5048898;28;19924;-74
2022/08/01 09:34:02;;;;;;;3.83;2.58;;;;;;;;;;5049204;28;20037;-75
2022/08/01 09:36:48;;;;;;;4.28;2.85;;;;;;;;;;5049074;28;20047;-76
2022/08/01 09:39:14;;;;;;;6.35;2.85;;;;;;;;;;5049117;28;20463;-75
2022/08/01 09:41:41;;;;;;;4.35;2.67;;;;;;;;;;5049589;28;20078;-74
2022/08/01 09:44:07;;;;;;;7.38;2.97;;;;;;;;;;5048809;28;20037;-76
2022/08/01 09:46:33;;;;;;;4.60;2.65;;;;;;;;;;5049320;28;20037;-76
2022/08/01 09:49:05;;;;;;;3.88;3.08;;;;;;;;;;5049441;28;20032;-78
2022/08/01 09:51:31;;;;;;;7.53;3.13;;;;;;;;;;5049121;28;20683;-78
2022/08/01 09:53:57;;;;;;;5.38;3.00;;;;;;;;;;5048708;28;20033;-76
2022/08/01 09:56:23;;;;;;;5.80;2.90;;;;;;;;;;5049257;28;20025;-78
2022/08/01 09:58:57;;;;;;;5.65;2.75;;;;;;;;;;5048924;28;20056;-76
2022/08/01 10:01:23;;;;;;;7.03;2.83;;;;;;;;;;5049352;28;20392;-76
2022/08/01 10:04:10;;;;;;;6.97;2.88;;;;;;;;;;5050515;28;20029;-77
2022/08/01 10:06:36;;;;;;;4.50;3.25;;;;;;;;;;5051203;28;20431;-77
2022/08/01 10:09:03;;;;;;;5.45;3.10;;;;;;;;;;5052646;28;20033;-77
2022/08/01 10:11:31;;;;;;;5.88;3.08;;;;;;;;;;5052510;28;20059;-76
2022/08/01 10:13:59;;;;;;;4.85;3.58;;;;;;;;;;5052070;28;20037;-78
2022/08/01 10:16:26;;;;;;;4.97;3.10;;;;;;;;;;5052755;28;20029;-77
2022/08/01 10:18:53;;;;;;;3.38;2.78;;;;;;;;;;5052776;28;20028;-74
2022/08/01 10:21:22;;;;;;;4.05;3.05;;;;;;;;;;5052149;28;20025;-74
2022/08/01 10:23:49;;;;;;;6.10;3.22;;;;;;;;;;5052280;28;20025;-75
2022/08/01 10:26:16;;;;;;;6.00;3.20;;;;;;;;;;5051680;28;20037;-76
2022/08/01 10:28:44;;;;;;;6.05;3.40;;;;;;;;;;5052027;28;20029;-74
2022/08/01 10:31:11;;;;;;;4.53;3.20;;;;;;;;;;5052331;28;20511;-75
2022/08/01 10:33:39;;;;;;;4.65;3.30;;;;;;;;;;5050837;28;20045;-73
2022/08/01 10:36:06;;;;;;;3.58;2.92;;;;;;;;;;5050129;28;21106;-76
2022/08/01 10:38:32;;;;;;;6.20;3.30;;;;;;;;;;5053009;28;20403;-76
2022/08/01 10:41:02;;;;;;;3.80;3.10;;;;;;;;;;5053426;28;20029;-77
2022/08/01 10:43:27;;;;;;;6.10;3.58;;;;;;;;;;5053186;28;20380;-76
2022/08/01 10:45:55;;;;;;;9.88;4.30;;;;;;;;;;5052914;28;20114;-74
2022/08/01 10:48:46;;;;;;;4.50;3.00;;;;;;;;;;5053545;28;20067;-75
2022/08/01 10:51:15;;;;;;;6.03;3.63;;;;;;;;;;5053451;28;20480;-77
2022/08/01 10:53:47;;;;;;;6.07;3.58;;;;;;;;;;5052627;28;20043;-78
2022/08/01 10:56:13;;;;;;;4.65;3.20;;;;;;;;;;5053068;28;20033;-76
2022/08/01 10:58:42;;;;;;;5.20;3.20;;;;;;;;;;5052300;28;20392;-77
2022/08/01 11:01:22;;;;;;;11.32;4.03;;;;;;;;;;5052889;28;20069;-74
2022/08/01 11:04:00;;;;;;;9.27;3.58;;;;;;;;;;5052589;28;20040;-74
2022/08/01 11:06:39;;;;;;;5.82;3.30;;;;;;;;;;5052732;28;20044;-75
2022/08/01 11:09:20;;;;;;;4.40;2.92;;;;;;;;;;5052961;28;20120;-75
2022/08/01 11:12:02;;;;;;;5.13;3.13;;;;;;;;;;5033061;28;20038;-75
2022/08/01 11:14:29;;;;;;;6.45;3.92;;;;;;;;;;5031952;28;20040;-75
2022/08/01 11:16:55;;;;;;;6.22;3.20;;;;;;;;;;5033245;28;20028;-74
2022/08/01 11:19:22;;;;;;;9.52;4.10;;;;;;;;;;5032746;28;20064;-74
2022/08/01 11:21:56;;;;;;;5.70;3.33;;;;;;;;;;5038145;28;20440;-73
2022/08/01 11:24:47;;;;;;;5.22;3.50;;;;;;;;;;5039274;28;20060;-73
2022/08/01 11:27:20;;;;;;;4.70;3.05;;;;;;;;;;5032172;28;20128;-74
2022/08/01 11:30:08;;;;;;;9.18;4.10;;;;;;;;;;5032337;28;20540;-74
2022/08/01 11:32:48;;;;;;;9.95;3.80;;;;;;;;;;5032212;28;20401;-74
2022/08/01 11:35:15;;;;;;;5.63;3.28;;;;;;;;;;5036650;28;20435;-74
2022/08/01 11:37:41;;;;;;;4.97;3.65;;;;;;;;;;5051883;28;20025;-74
2022/08/01 11:40:27;;;;;;;5.85;4.00;;;;;;;;;;5052118;28;20037;-73
2022/08/01 11:43:16;;;;;;;5.90;4.10;;;;;;;;;;5051819;28;20115;-75
2022/08/01 11:45:51;;;;;;;7.15;4.70;;;;;;;;;;5050323;28;20408;-74
2022/08/01 11:48:25;;;;;;;4.90;4.20;;;;;;;;;;5039179;28;20495;-74
2022/08/01 11:50:52;;;;;;;5.65;3.90;;;;;;;;;;5050599;28;20431;-74
2022/08/01 11:53:19;;;;;;;7.30;3.70;;;;;;;;;;5051375;28;20905;-74
2022/08/01 11:55:54;;;;;;;4.70;3.75;;;;;;;;;;5051379;28;20032;-73
2022/08/01 11:58:25;;;;;;;6.18;4.53;;;;;;;;;;5051745;28;20065;-74
2022/08/01 12:00:52;;;;;;;6.95;4.22;;;;;;;;;;5051381;28;20039;-73
2022/08/01 12:03:27;;;;;;;9.20;4.35;;;;;;;;;;5051649;28;20090;-73
2022/08/01 12:05:55;;;;;;;5.55;4.22;;;;;;;;;;5051681;28;20472;-74
2022/08/01 12:08:29;;;;;;;7.70;4.30;;;;;;;;;;5051558;28;20056;-76
2022/08/01 12:10:55;;;;;;;6.85;4.50;;;;;;;;;;5051493;28;20380;-78
2022/08/01 12:13:22;;;;;;;6.65;4.65;;;;;;;;;;5051341;28;20029;-78
2022/08/01 12:15:50;;;;;;;6.68;4.40;;;;;;;;;;5051449;28;20025;-75
2022/08/01 12:18:16;;;;;;;9.02;4.05;;;;;;;;;;5040609;28;20037;-75
2022/08/01 12:20:45;;;;;;;7.32;3.90;;;;;;;;;;5030184;28;20124;-77
2022/08/01 12:23:12;;;;;;;5.60;4.10;;;;;;;;;;5031352;28;20104;-75
2022/08/01 12:25:40;;;;;;;11.55;4.65;;;;;;;;;;5033709;28;20034;-77
2022/08/01 12:28:08;;;;;;;8.52;4.70;;;;;;;;;;5034940;28;20455;-76
2022/08/01 12:30:36;;;;;;;5.45;4.18;;;;;;;;;;5032526;28;20040;-74
2022/08/01 12:33:04;;;;;;;4.70;3.97;;;;;;;;;;5032319;28;20064;-76
2022/08/01 12:35:31;;;;;;;4.40;3.17;;;;;;;;;;5042859;28;20036;-77
2022/08/01 12:38:03;;;;;;;4.75;3.35;;;;;;;;;;5045255;28;20022;-74
2022/08/01 12:40:35;;;;;;;4.90;3.53;;;;;;;;;;5051046;28;20029;-77
2022/08/01 12:43:06;;;;;;;4.80;3.50;;;;;;;;;;5038553;28;20476;-79
2022/08/01 12:45:42;;;;;;;4.97;3.47;;;;;;;;;;5050445;28;20036;-76
2022/08/01 12:48:13;;;;;;;5.05;3.40;;;;;;;;;;5051743;28;20410;-76
2022/08/01 12:50:41;;;;;;;5.68;3.20;;;;;;;;;;5052612;28;20072;-73
2022/08/01 12:53:08;;;;;;;6.72;3.65;;;;;;;;;;5051595;28;20078;-74
2022/08/01 12:55:45;;;;;;;5.05;3.38;;;;;;;;;;5045745;28;20025;-76
2022/08/01 12:58:13;;;;;;;4.35;3.63;;;;;;;;;;5044623;28;20044;-75
2022/08/01 13:00:41;;;;;;;5.13;3.30;;;;;;;;;;5028976;28;20756;-76
2022/08/01 13:03:14;;;;;;;4.57;3.45;;;;;;;;;;5027808;28;20040;-77
2022/08/01 13:05:54;;;;;;;7.20;3.40;;;;;;;;;;5040582;28;20032;-74
2022/08/01 13:08:24;;;;;;;4.75;3.65;;;;;;;;;;5029651;28;20033;-74
2022/08/01 13:11:13;;;;;;;6.63;3.53;;;;;;;;;;5030708;28;20034;-76
2022/08/01 13:13:42;;;;;;;3.58;3.15;;;;;;;;;;5032687;28;20026;-78
2022/08/01 13:16:09;;;;;;;6.60;3.35;;;;;;;;;;5032641;28;20480;-77
2022/08/01 13:18:36;;;;;;;4.72;3.55;;;;;;;;;;5032773;28;20395;-78
2022/08/01 13:21:32;;;;;;;6.32;3.47;;;;;;;;;;5032596;28;20103;-78
2022/08/01 13:24:06;;;;;;;5.10;3.20;;;;;;;;;;5031697;28;20532;-77
2022/08/01 13:26:50;;;;;;;6.18;3.40;;;;;;;;;;5031155;28;20120;-75
2022/08/01 13:29:22;;;;;;;4.22;3.15;;;;;;;;;;5032470;28;20038;-81
2022/08/01 13:31:49;;;;;;;6.65;3.15;;;;;;;;;;5032370;28;20030;-77
2022/08/01 13:34:15;;;;;;;8.52;3.45;;;;;;;;;;5032498;28;20114;-78
2022/08/01 13:36:42;;;;;;;5.72;3.20;;;;;;;;;;5032607;28;20046;-77
2022/08/01 13:41:53;;;;;;;6.05;3.17;;;;;;;;;;5036246;28;20500;-77
2022/08/01 13:44:19;;;;;;;6.85;3.15;;;;;;;;;;5036075;28;20072;-76
2022/08/01 13:46:47;;;;;;;3.88;3.17;;;;;;;;;;5036346;28;20037;-76
2022/08/01 13:49:13;;;;;;;6.20;3.60;;;;;;;;;;5045898;28;20096;-77
2022/08/01 13:51:41;;;;;;;5.15;3.25;;;;;;;;;;5036943;28;20033;-77
2022/08/01 13:54:08;;;;;;;4.85;3.47;;;;;;;;;;5035961;28;20033;-76
2022/08/01 13:56:34;;;;;;;4.70;3.10;;;;;;;;;;5036011;28;20041;-77
2022/08/01 13:59:00;;;;;;;3.70;3.30;;;;;;;;;;5035890;28;20036;-77
2022/08/01 14:01:26;;;;;;;5.47;3.28;;;;;;;;;;5035854;28;20079;-77
2022/08/01 14:03:52;;;;;;;4.47;3.20;;;;;;;;;;5051012;28;20033;-73
2022/08/01 14:06:22;;;;;;;6.00;3.00;;;;;;;;;;5035622;28;20069;-73
2022/08/01 14:08:49;;;;;;;4.40;3.17;;;;;;;;;;5035744;28;20033;-74
2022/08/01 14:11:15;;;;;;;4.72;3.17;;;;;;;;;;5035665;28;20133;-80
2022/08/01 14:13:41;;;;;;;5.82;3.30;;;;;;;;;;5040343;28;20083;-74
2022/08/01 14:16:07;;;;;;;3.55;3.08;;;;;;;;;;5037046;28;20025;-78
2022/08/01 14:18:33;;;;;;;5.63;3.25;;;;;;;;;;5036328;28;20059;-74
2022/08/01 14:20:59;;;;;;;5.10;3.22;;;;;;;;;;5054829;28;20093;-72
2022/08/01 14:23:26;;;;;;;5.43;3.05;;;;;;;;;;5054884;28;20033;-74
2022/08/01 14:25:52;;;;;;;3.47;2.97;;;;;;;;;;5041126;28;20029;-74
2022/08/01 14:28:18;;;;;;;6.68;3.60;;;;;;;;;;5043327;28;20061;-74
2022/08/01 14:30:44;;;;;;;6.65;3.20;;;;;;;;;;5051557;28;20104;-73
2022/08/01 14:33:12;;;;;;;5.25;3.17;;;;;;;;;;5041994;28;20041;-74
2022/08/01 14:35:38;;;;;;;3.83;3.00;;;;;;;;;;5054669;28;20380;-75
2022/08/01 14:38:04;;;;;;;5.57;3.28;;;;;;;;;;5039782;28;20388;-75
2022/08/01 14:40:29;;;;;;;5.90;2.88;;;;;;;;;;5038587;28;20036;-73
2022/08/01 14:42:55;;;;;;;7.85;3.83;;;;;;;;;;5034520;28;20436;-75
2022/08/01 14:45:21;;;;;;;4.55;3.13;;;;;;;;;;5047201;28;20033;-73
2022/08/01 14:47:47;;;;;;;4.40;3.17;;;;;;;;;;5034423;28;20374;-73
2022/08/01 14:50:15;;;;;;;4.47;3.15;;;;;;;;;;5033370;28;20040;-74
2022/08/01 14:52:42;;;;;;;3.85;3.13;;;;;;;;;;5034459;28;20092;-72
2022/08/01 14:55:10;;;;;;;5.30;3.30;;;;;;;;;;5034419;28;20468;-74
2022/08/01 14:57:37;;;;;;;4.70;3.28;;;;;;;;;;5036867;28;20033;-74